sensor_id;sensor_type;location;lat;lon;timestamp;P1;durP1;ratioP1;P2;durP2;ratioP2
22127;SDS011;11230;50.854;6.454;2022-07-23T00:01:44;0.80;;;0.75;;
22127;SDS011;11230;50.854;6.454;2022-07-23T00:06:27;0.85;;;0.75;;
22127;SDS011;11230;50.854;6.454;2022-07-23T00:11:10;0.55;;;0.47;;
22127;SDS011;11230;50.854;6.454;2022-07-23T00:15:51;0.52;;;0.52;;
22127;SDS011;11230;50.854;6.454;2022-07-23T00:20:32;0.30;;;0.30;;
22127;SDS011;11230;50.854;6.454;2022-07-23T00:25:14;0.47;;;0.45;;
22127;SDS011;11230;50.854;6.454;2022-07-23T00:29:56;0.47;;;0.47;;
22127;SDS011;11230;50.854;6.454;2022-07-23T00:34:38;1.08;;;0.47;;
22127;SDS011;11230;50.854;6.454;2022-07-23T00:39:19;0.38;;;0.35;;
22127;SDS011;11230;50.854;6.454;2022-07-23T00:44:14;0.47;;;0.43;;
22127;SDS011;11230;50.854;6.454;2022-07-23T00:48:57;1.40;;;0.98;;
22127;SDS011;11230;50.854;6.454;2022-07-23T00:53:38;3.33;;;1.20;;
22127;SDS011;11230;50.854;6.454;2022-07-23T00:58:20;1.90;;;0.88;;
22127;SDS011;11230;50.854;6.454;2022-07-23T01:03:01;2.75;;;1.25;;
22127;SDS011;11230;50.854;6.454;2022-07-23T01:07:45;0.55;;;0.55;;
22127;SDS011;11230;50.854;6.454;2022-07-23T01:12:26;0.63;;;0.63;;
22127;SDS011;11230;50.854;6.454;2022-07-23T01:17:08;0.82;;;0.77;;
22127;SDS011;11230;50.854;6.454;2022-07-23T01:21:50;2.25;;;1.38;;
22127;SDS011;11230;50.854;6.454;2022-07-23T01:26:33;0.90;;;0.68;;
22127;SDS011;11230;50.854;6.454;2022-07-23T01:31:15;0.80;;;0.70;;
22127;SDS011;11230;50.854;6.454;2022-07-23T01:35:57;1.77;;;0.43;;
22127;SDS011;11230;50.854;6.454;2022-07-23T01:40:39;2.55;;;0.50;;
22127;SDS011;11230;50.854;6.454;2022-07-23T01:45:22;1.30;;;0.63;;
22127;SDS011;11230;50.854;6.454;2022-07-23T01:50:03;1.17;;;0.90;;
22127;SDS011;11230;50.854;6.454;2022-07-23T01:54:45;2.20;;;0.95;;
22127;SDS011;11230;50.854;6.454;2022-07-23T01:59:26;0.82;;;0.82;;
22127;SDS011;11230;50.854;6.454;2022-07-23T02:04:09;1.55;;;0.90;;
22127;SDS011;11230;50.854;6.454;2022-07-23T02:08:51;0.95;;;0.85;;
22127;SDS011;11230;50.854;6.454;2022-07-23T02:13:32;0.50;;;0.35;;
22127;SDS011;11230;50.854;6.454;2022-07-23T02:18:13;3.55;;;1.30;;
22127;SDS011;11230;50.854;6.454;2022-07-23T02:22:56;0.85;;;0.77;;
22127;SDS011;11230;50.854;6.454;2022-07-23T02:27:37;0.50;;;0.50;;
22127;SDS011;11230;50.854;6.454;2022-07-23T02:32:19;1.75;;;0.90;;
22127;SDS011;11230;50.854;6.454;2022-07-23T02:37:01;1.63;;;0.95;;
22127;SDS011;11230;50.854;6.454;2022-07-23T02:41:44;1.40;;;0.82;;
22127;SDS011;11230;50.854;6.454;2022-07-23T02:46:25;2.20;;;0.68;;
22127;SDS011;11230;50.854;6.454;2022-07-23T02:51:06;1.35;;;0.57;;
22127;SDS011;11230;50.854;6.454;2022-07-23T02:55:48;0.75;;;0.75;;
22127;SDS011;11230;50.854;6.454;2022-07-23T03:00:31;1.50;;;0.98;;
22127;SDS011;11230;50.854;6.454;2022-07-23T03:05:12;0.70;;;0.68;;
22127;SDS011;11230;50.854;6.454;2022-07-23T03:09:54;0.43;;;0.43;;
22127;SDS011;11230;50.854;6.454;2022-07-23T03:14:35;1.00;;;0.90;;
22127;SDS011;11230;50.854;6.454;2022-07-23T03:19:17;0.40;;;0.40;;
22127;SDS011;11230;50.854;6.454;2022-07-23T03:23:59;0.82;;;0.82;;
22127;SDS011;11230;50.854;6.454;2022-07-23T03:28:40;1.00;;;0.90;;
22127;SDS011;11230;50.854;6.454;2022-07-23T03:33:23;0.30;;;0.30;;
22127;SDS011;11230;50.854;6.454;2022-07-23T03:38:05;0.70;;;0.70;;
22127;SDS011;11230;50.854;6.454;2022-07-23T03:42:47;0.52;;;0.52;;
22127;SDS011;11230;50.854;6.454;2022-07-23T03:47:28;0.63;;;0.40;;
22127;SDS011;11230;50.854;6.454;2022-07-23T03:52:09;0.43;;;0.40;;
22127;SDS011;11230;50.854;6.454;2022-07-23T03:56:52;0.75;;;0.50;;
22127;SDS011;11230;50.854;6.454;2022-07-23T04:01:33;0.35;;;0.35;;
22127;SDS011;11230;50.854;6.454;2022-07-23T04:06:15;0.73;;;0.47;;
22127;SDS011;11230;50.854;6.454;2022-07-23T04:10:56;1.05;;;0.50;;
22127;SDS011;11230;50.854;6.454;2022-07-23T04:15:39;5.35;;;0.75;;
22127;SDS011;11230;50.854;6.454;2022-07-23T04:20:20;1.17;;;0.65;;
22127;SDS011;11230;50.854;6.454;2022-07-23T04:25:02;0.30;;;0.22;;
22127;SDS011;11230;50.854;6.454;2022-07-23T04:29:43;0.80;;;0.80;;
22127;SDS011;11230;50.854;6.454;2022-07-23T04:34:26;0.93;;;0.57;;
22127;SDS011;11230;50.854;6.454;2022-07-23T04:39:07;1.30;;;1.20;;
22127;SDS011;11230;50.854;6.454;2022-07-23T04:43:49;2.00;;;1.13;;
22127;SDS011;11230;50.854;6.454;2022-07-23T04:48:30;1.33;;;0.80;;
22127;SDS011;11230;50.854;6.454;2022-07-23T04:53:13;0.68;;;0.68;;
22127;SDS011;11230;50.854;6.454;2022-07-23T04:57:54;2.53;;;1.30;;
22127;SDS011;11230;50.854;6.454;2022-07-23T05:02:35;1.58;;;1.48;;
22127;SDS011;11230;50.854;6.454;2022-07-23T05:07:17;1.00;;;0.90;;
22127;SDS011;11230;50.854;6.454;2022-07-23T05:12:00;3.42;;;1.15;;
22127;SDS011;11230;50.854;6.454;2022-07-23T05:16:41;1.58;;;0.98;;
22127;SDS011;11230;50.854;6.454;2022-07-23T05:21:22;0.55;;;0.52;;
22127;SDS011;11230;50.854;6.454;2022-07-23T05:26:04;0.65;;;0.65;;
22127;SDS011;11230;50.854;6.454;2022-07-23T05:30:47;1.55;;;1.30;;
22127;SDS011;11230;50.854;6.454;2022-07-23T05:35:28;0.68;;;0.57;;
22127;SDS011;11230;50.854;6.454;2022-07-23T05:40:10;1.15;;;0.95;;
22127;SDS011;11230;50.854;6.454;2022-07-23T05:44:52;6.65;;;1.45;;
22127;SDS011;11230;50.854;6.454;2022-07-23T05:49:34;0.95;;;0.88;;
22127;SDS011;11230;50.854;6.454;2022-07-23T05:54:17;1.58;;;0.80;;
22127;SDS011;11230;50.854;6.454;2022-07-23T05:58:58;2.92;;;1.92;;
22127;SDS011;11230;50.854;6.454;2022-07-23T06:03:40;1.75;;;1.40;;
22127;SDS011;11230;50.854;6.454;2022-07-23T06:08:22;2.03;;;1.70;;
22127;SDS011;11230;50.854;6.454;2022-07-23T06:13:04;0.77;;;0.77;;
22127;SDS011;11230;50.854;6.454;2022-07-23T06:17:45;2.38;;;0.93;;
22127;SDS011;11230;50.854;6.454;2022-07-23T06:22:27;2.88;;;1.60;;
22127;SDS011;11230;50.854;6.454;2022-07-23T06:27:09;1.65;;;1.33;;
22127;SDS011;11230;50.854;6.454;2022-07-23T06:31:51;2.90;;;1.42;;
22127;SDS011;11230;50.854;6.454;2022-07-23T06:36:32;5.20;;;2.63;;
22127;SDS011;11230;50.854;6.454;2022-07-23T06:41:14;2.92;;;1.70;;
22127;SDS011;11230;50.854;6.454;2022-07-23T06:45:57;2.55;;;1.90;;
22127;SDS011;11230;50.854;6.454;2022-07-23T06:50:38;0.93;;;0.75;;
22127;SDS011;11230;50.854;6.454;2022-07-23T06:55:19;2.05;;;1.83;;
22127;SDS011;11230;50.854;6.454;2022-07-23T07:00:01;2.00;;;1.45;;
22127;SDS011;11230;50.854;6.454;2022-07-23T07:04:44;3.40;;;2.28;;
22127;SDS011;11230;50.854;6.454;2022-07-23T07:09:25;1.58;;;1.48;;
22127;SDS011;11230;50.854;6.454;2022-07-23T07:14:06;5.70;;;2.05;;
22127;SDS011;11230;50.854;6.454;2022-07-23T07:18:48;2.92;;;1.60;;
22127;SDS011;11230;50.854;6.454;2022-07-23T07:23:31;1.90;;;1.35;;
22127;SDS011;11230;50.854;6.454;2022-07-23T07:28:13;5.70;;;2.28;;
22127;SDS011;11230;50.854;6.454;2022-07-23T07:32:54;3.28;;;1.88;;
22127;SDS011;11230;50.854;6.454;2022-07-23T07:37:35;1.85;;;1.65;;
22127;SDS011;11230;50.854;6.454;2022-07-23T07:42:18;2.35;;;1.52;;
22127;SDS011;11230;50.854;6.454;2022-07-23T07:46:59;2.28;;;1.70;;
22127;SDS011;11230;50.854;6.454;2022-07-23T07:51:41;9.10;;;2.28;;
22127;SDS011;11230;50.854;6.454;2022-07-23T07:56:22;2.30;;;1.67;;
22127;SDS011;11230;50.854;6.454;2022-07-23T08:01:05;2.53;;;1.67;;
22127;SDS011;11230;50.854;6.454;2022-07-23T08:05:46;1.50;;;1.40;;
22127;SDS011;11230;50.854;6.454;2022-07-23T08:10:28;4.63;;;1.92;;
22127;SDS011;11230;50.854;6.454;2022-07-23T08:15:11;3.20;;;1.63;;
22127;SDS011;11230;50.854;6.454;2022-07-23T08:19:54;1.50;;;1.33;;
22127;SDS011;11230;50.854;6.454;2022-07-23T08:24:36;2.22;;;1.75;;
22127;SDS011;11230;50.854;6.454;2022-07-23T08:29:17;1.45;;;1.35;;
22127;SDS011;11230;50.854;6.454;2022-07-23T08:33:59;2.05;;;1.38;;
22127;SDS011;11230;50.854;6.454;2022-07-23T08:38:41;3.35;;;1.92;;
22127;SDS011;11230;50.854;6.454;2022-07-23T08:48:05;2.38;;;1.52;;
22127;SDS011;11230;50.854;6.454;2022-07-23T08:52:48;1.60;;;1.40;;
22127;SDS011;11230;50.854;6.454;2022-07-23T08:57:31;1.95;;;1.35;;
22127;SDS011;11230;50.854;6.454;2022-07-23T09:06:53;1.63;;;1.30;;
22127;SDS011;11230;50.854;6.454;2022-07-23T09:11:35;3.17;;;2.10;;
22127;SDS011;11230;50.854;6.454;2022-07-23T09:16:19;2.22;;;1.48;;
22127;SDS011;11230;50.854;6.454;2022-07-23T09:25:43;1.13;;;1.02;;
22127;SDS011;11230;50.854;6.454;2022-07-23T09:30:25;1.38;;;0.95;;
22127;SDS011;11230;50.854;6.454;2022-07-23T09:35:08;1.10;;;1.05;;
22127;SDS011;11230;50.854;6.454;2022-07-23T09:39:50;1.58;;;1.30;;
22127;SDS011;11230;50.854;6.454;2022-07-23T09:44:31;1.80;;;1.40;;
22127;SDS011;11230;50.854;6.454;2022-07-23T09:49:22;1.10;;;1.00;;
22127;SDS011;11230;50.854;6.454;2022-07-23T09:54:06;1.67;;;1.10;;
22127;SDS011;11230;50.854;6.454;2022-07-23T09:59:00;2.03;;;1.30;;
22127;SDS011;11230;50.854;6.454;2022-07-23T10:03:44;4.57;;;1.30;;
22127;SDS011;11230;50.854;6.454;2022-07-23T10:08:27;1.20;;;0.75;;
22127;SDS011;11230;50.854;6.454;2022-07-23T10:13:10;1.08;;;0.82;;
22127;SDS011;11230;50.854;6.454;2022-07-23T10:18:24;1.58;;;1.00;;
22127;SDS011;11230;50.854;6.454;2022-07-23T10:23:08;5.07;;;0.88;;
22127;SDS011;11230;50.854;6.454;2022-07-23T10:28:04;0.40;;;0.40;;
22127;SDS011;11230;50.854;6.454;2022-07-23T10:32:53;0.85;;;0.85;;
22127;SDS011;11230;50.854;6.454;2022-07-23T10:37:38;1.83;;;0.68;;
22127;SDS011;11230;50.854;6.454;2022-07-23T10:42:20;3.22;;;0.88;;
22127;SDS011;11230;50.854;6.454;2022-07-23T10:47:02;0.65;;;0.65;;
22127;SDS011;11230;50.854;6.454;2022-07-23T10:52:18;0.60;;;0.45;;
22127;SDS011;11230;50.854;6.454;2022-07-23T10:57:06;1.75;;;0.90;;
22127;SDS011;11230;50.854;6.454;2022-07-23T11:01:48;0.73;;;0.50;;
22127;SDS011;11230;50.854;6.454;2022-07-23T11:11:32;0.70;;;0.60;;
22127;SDS011;11230;50.854;6.454;2022-07-23T11:16:14;0.68;;;0.40;;
22127;SDS011;11230;50.854;6.454;2022-07-23T11:20:56;1.25;;;1.15;;
22127;SDS011;11230;50.854;6.454;2022-07-23T11:25:38;0.43;;;0.43;;
22127;SDS011;11230;50.854;6.454;2022-07-23T11:35:21;3.17;;;0.50;;
22127;SDS011;11230;50.854;6.454;2022-07-23T11:40:04;0.55;;;0.50;;
22127;SDS011;11230;50.854;6.454;2022-07-23T11:44:48;0.22;;;0.22;;
22127;SDS011;11230;50.854;6.454;2022-07-23T11:49:30;0.98;;;0.68;;
22127;SDS011;11230;50.854;6.454;2022-07-23T11:54:12;0.50;;;0.43;;
22127;SDS011;11230;50.854;6.454;2022-07-23T11:58:54;0.20;;;0.20;;
22127;SDS011;11230;50.854;6.454;2022-07-23T12:03:38;0.40;;;0.35;;
22127;SDS011;11230;50.854;6.454;2022-07-23T12:08:29;0.40;;;0.40;;
22127;SDS011;11230;50.854;6.454;2022-07-23T12:13:12;0.28;;;0.28;;
22127;SDS011;11230;50.854;6.454;2022-07-23T12:17:54;0.17;;;0.17;;
22127;SDS011;11230;50.854;6.454;2022-07-23T12:22:36;0.45;;;0.45;;
22127;SDS011;11230;50.854;6.454;2022-07-23T12:27:19;0.60;;;0.47;;
22127;SDS011;11230;50.854;6.454;2022-07-23T12:32:02;0.38;;;0.38;;
22127;SDS011;11230;50.854;6.454;2022-07-23T12:36:56;0.93;;;0.85;;
22127;SDS011;11230;50.854;6.454;2022-07-23T12:41:50;0.20;;;0.20;;
22127;SDS011;11230;50.854;6.454;2022-07-23T12:46:40;0.50;;;0.50;;
22127;SDS011;11230;50.854;6.454;2022-07-23T12:51:24;0.30;;;0.30;;
22127;SDS011;11230;50.854;6.454;2022-07-23T12:56:07;0.60;;;0.60;;
22127;SDS011;11230;50.854;6.454;2022-07-23T13:00:49;0.95;;;0.52;;
22127;SDS011;11230;50.854;6.454;2022-07-23T13:05:31;0.55;;;0.30;;
22127;SDS011;11230;50.854;6.454;2022-07-23T13:10:15;0.52;;;0.52;;
22127;SDS011;11230;50.854;6.454;2022-07-23T13:14:56;0.20;;;0.20;;
22127;SDS011;11230;50.854;6.454;2022-07-23T13:19:38;0.75;;;0.63;;
22127;SDS011;11230;50.854;6.454;2022-07-23T13:24:20;0.35;;;0.35;;
22127;SDS011;11230;50.854;6.454;2022-07-23T13:29:03;0.60;;;0.20;;
22127;SDS011;11230;50.854;6.454;2022-07-23T13:33:45;0.85;;;0.65;;
22127;SDS011;11230;50.854;6.454;2022-07-23T13:38:26;0.30;;;0.30;;
22127;SDS011;11230;50.854;6.454;2022-07-23T13:43:08;0.93;;;0.60;;
22127;SDS011;11230;50.854;6.454;2022-07-23T13:47:52;0.57;;;0.45;;
22127;SDS011;11230;50.854;6.454;2022-07-23T13:52:33;0.25;;;0.25;;
22127;SDS011;11230;50.854;6.454;2022-07-23T13:57:15;0.82;;;0.52;;
22127;SDS011;11230;50.854;6.454;2022-07-23T14:01:56;0.70;;;0.43;;
22127;SDS011;11230;50.854;6.454;2022-07-23T14:06:39;0.63;;;0.57;;
22127;SDS011;11230;50.854;6.454;2022-07-23T14:11:20;0.45;;;0.40;;
22127;SDS011;11230;50.854;6.454;2022-07-23T14:16:02;0.45;;;0.30;;
22127;SDS011;11230;50.854;6.454;2022-07-23T14:20:43;1.45;;;0.55;;
22127;SDS011;11230;50.854;6.454;2022-07-23T14:25:26;0.77;;;0.40;;
22127;SDS011;11230;50.854;6.454;2022-07-23T14:30:08;0.35;;;0.30;;
22127;SDS011;11230;50.854;6.454;2022-07-23T14:34:50;0.20;;;0.20;;
22127;SDS011;11230;50.854;6.454;2022-07-23T14:39:31;0.40;;;0.32;;
22127;SDS011;11230;50.854;6.454;2022-07-23T14:44:14;0.35;;;0.28;;
22127;SDS011;11230;50.854;6.454;2022-07-23T14:48:55;0.30;;;0.30;;
22127;SDS011;11230;50.854;6.454;2022-07-23T14:53:37;0.90;;;0.68;;
22127;SDS011;11230;50.854;6.454;2022-07-23T14:58:18;0.55;;;0.55;;
22127;SDS011;11230;50.854;6.454;2022-07-23T15:03:01;0.47;;;0.40;;
22127;SDS011;11230;50.854;6.454;2022-07-23T15:07:43;0.43;;;0.43;;
22127;SDS011;11230;50.854;6.454;2022-07-23T15:12:25;1.15;;;0.60;;
22127;SDS011;11230;50.854;6.454;2022-07-23T15:17:06;0.10;;;0.10;;
22127;SDS011;11230;50.854;6.454;2022-07-23T15:21:49;0.35;;;0.32;;
22127;SDS011;11230;50.854;6.454;2022-07-23T15:26:30;0.40;;;0.40;;
22127;SDS011;11230;50.854;6.454;2022-07-23T15:31:12;0.30;;;0.30;;
22127;SDS011;11230;50.854;6.454;2022-07-23T15:35:53;0.30;;;0.30;;
22127;SDS011;11230;50.854;6.454;2022-07-23T15:40:38;1.77;;;0.55;;
22127;SDS011;11230;50.854;6.454;2022-07-23T15:45:19;0.73;;;0.50;;
22127;SDS011;11230;50.854;6.454;2022-07-23T15:50:01;0.30;;;0.30;;
22127;SDS011;11230;50.854;6.454;2022-07-23T15:54:43;0.28;;;0.22;;
22127;SDS011;11230;50.854;6.454;2022-07-23T15:59:25;0.63;;;0.38;;
22127;SDS011;11230;50.854;6.454;2022-07-23T16:04:07;0.25;;;0.25;;
22127;SDS011;11230;50.854;6.454;2022-07-23T16:08:48;0.40;;;0.40;;
22127;SDS011;11230;50.854;6.454;2022-07-23T16:13:30;0.28;;;0.28;;
22127;SDS011;11230;50.854;6.454;2022-07-23T16:18:13;0.22;;;0.22;;
22127;SDS011;11230;50.854;6.454;2022-07-23T16:22:54;0.40;;;0.40;;
22127;SDS011;11230;50.854;6.454;2022-07-23T16:27:36;0.68;;;0.47;;
22127;SDS011;11230;50.854;6.454;2022-07-23T16:32:18;0.47;;;0.43;;
22127;SDS011;11230;50.854;6.454;2022-07-23T16:37:02;0.10;;;0.10;;
22127;SDS011;11230;50.854;6.454;2022-07-23T16:41:46;0.57;;;0.28;;
22127;SDS011;11230;50.854;6.454;2022-07-23T16:46:28;2.20;;;0.50;;
22127;SDS011;11230;50.854;6.454;2022-07-23T16:51:09;0.20;;;0.20;;
22127;SDS011;11230;50.854;6.454;2022-07-23T16:55:52;0.47;;;0.47;;
22127;SDS011;11230;50.854;6.454;2022-07-23T17:00:33;2.42;;;0.45;;
22127;SDS011;11230;50.854;6.454;2022-07-23T17:05:15;0.15;;;0.15;;
22127;SDS011;11230;50.854;6.454;2022-07-23T17:09:56;0.40;;;0.40;;
22127;SDS011;11230;50.854;6.454;2022-07-23T17:14:41;0.82;;;0.63;;
22127;SDS011;11230;50.854;6.454;2022-07-23T17:19:22;0.20;;;0.20;;
22127;SDS011;11230;50.854;6.454;2022-07-23T17:24:04;0.40;;;0.30;;
22127;SDS011;11230;50.854;6.454;2022-07-23T17:28:45;0.35;;;0.30;;
22127;SDS011;11230;50.854;6.454;2022-07-23T17:33:28;1.90;;;0.40;;
22127;SDS011;11230;50.854;6.454;2022-07-23T17:38:09;0.55;;;0.43;;
22127;SDS011;11230;50.854;6.454;2022-07-23T17:42:51;0.35;;;0.28;;
22127;SDS011;11230;50.854;6.454;2022-07-23T17:47:32;0.38;;;0.30;;
22127;SDS011;11230;50.854;6.454;2022-07-23T17:52:15;0.20;;;0.20;;
22127;SDS011;11230;50.854;6.454;2022-07-23T18:01:38;0.30;;;0.10;;
22127;SDS011;11230;50.854;6.454;2022-07-23T18:06:25;1.48;;;0.60;;
22127;SDS011;11230;50.854;6.454;2022-07-23T18:11:07;0.40;;;0.40;;
22127;SDS011;11230;50.854;6.454;2022-07-23T18:15:49;0.38;;;0.20;;
22127;SDS011;11230;50.854;6.454;2022-07-23T18:20:30;0.30;;;0.30;;
22127;SDS011;11230;50.854;6.454;2022-07-23T18:25:11;0.52;;;0.38;;
22127;SDS011;11230;50.854;6.454;2022-07-23T18:29:55;0.50;;;0.50;;
22127;SDS011;11230;50.854;6.454;2022-07-23T18:34:37;0.40;;;0.40;;
22127;SDS011;11230;50.854;6.454;2022-07-23T18:39:18;0.25;;;0.25;;
22127;SDS011;11230;50.854;6.454;2022-07-23T18:43:59;0.25;;;0.25;;
22127;SDS011;11230;50.854;6.454;2022-07-23T18:48:42;1.02;;;0.82;;
22127;SDS011;11230;50.854;6.454;2022-07-23T18:53:23;2.70;;;0.55;;
22127;SDS011;11230;50.854;6.454;2022-07-23T18:58:05;0.40;;;0.40;;
22127;SDS011;11230;50.854;6.454;2022-07-23T19:02:46;0.75;;;0.60;;
22127;SDS011;11230;50.854;6.454;2022-07-23T19:07:29;0.20;;;0.20;;
22127;SDS011;11230;50.854;6.454;2022-07-23T19:12:10;0.55;;;0.55;;
22127;SDS011;11230;50.854;6.454;2022-07-23T19:16:52;4.32;;;0.63;;
22127;SDS011;11230;50.854;6.454;2022-07-23T19:21:34;0.22;;;0.22;;
22127;SDS011;11230;50.854;6.454;2022-07-23T19:26:17;0.25;;;0.25;;
22127;SDS011;11230;50.854;6.454;2022-07-23T19:30:58;0.52;;;0.52;;
22127;SDS011;11230;50.854;6.454;2022-07-23T19:35:39;0.43;;;0.40;;
22127;SDS011;11230;50.854;6.454;2022-07-23T19:40:21;1.02;;;0.57;;
22127;SDS011;11230;50.854;6.454;2022-07-23T19:45:04;0.63;;;0.32;;
22127;SDS011;11230;50.854;6.454;2022-07-23T19:49:46;1.17;;;0.38;;
22127;SDS011;11230;50.854;6.454;2022-07-23T19:54:27;0.45;;;0.45;;
22127;SDS011;11230;50.854;6.454;2022-07-23T19:59:09;6.85;;;1.20;;
22127;SDS011;11230;50.854;6.454;2022-07-23T20:03:51;1.30;;;0.90;;
22127;SDS011;11230;50.854;6.454;2022-07-23T20:08:33;0.40;;;0.40;;
22127;SDS011;11230;50.854;6.454;2022-07-23T20:13:14;0.45;;;0.45;;
22127;SDS011;11230;50.854;6.454;2022-07-23T20:17:56;0.30;;;0.20;;
22127;SDS011;11230;50.854;6.454;2022-07-23T20:22:39;0.68;;;0.68;;
22127;SDS011;11230;50.854;6.454;2022-07-23T20:27:20;0.25;;;0.25;;
22127;SDS011;11230;50.854;6.454;2022-07-23T20:32:02;0.50;;;0.50;;
22127;SDS011;11230;50.854;6.454;2022-07-23T20:36:43;0.35;;;0.32;;
22127;SDS011;11230;50.854;6.454;2022-07-23T20:41:26;0.47;;;0.20;;
22127;SDS011;11230;50.854;6.454;2022-07-23T20:46:08;0.43;;;0.43;;
22127;SDS011;11230;50.854;6.454;2022-07-23T20:50:49;2.17;;;0.75;;
22127;SDS011;11230;50.854;6.454;2022-07-23T20:55:31;0.30;;;0.30;;
22127;SDS011;11230;50.854;6.454;2022-07-23T21:04:55;1.10;;;0.93;;
22127;SDS011;11230;50.854;6.454;2022-07-23T21:09:36;0.30;;;0.28;;
22127;SDS011;11230;50.854;6.454;2022-07-23T21:14:17;4.95;;;0.93;;
22127;SDS011;11230;50.854;6.454;2022-07-23T21:18:59;3.33;;;0.80;;
22127;SDS011;11230;50.854;6.454;2022-07-23T21:23:42;1.25;;;0.75;;
22127;SDS011;11230;50.854;6.454;2022-07-23T21:28:24;0.20;;;0.20;;
22127;SDS011;11230;50.854;6.454;2022-07-23T21:33:05;0.10;;;0.10;;
22127;SDS011;11230;50.854;6.454;2022-07-23T21:37:47;0.38;;;0.38;;
22127;SDS011;11230;50.854;6.454;2022-07-23T21:42:29;0.68;;;0.40;;
22127;SDS011;11230;50.854;6.454;2022-07-23T21:47:11;0.35;;;0.25;;
22127;SDS011;11230;50.854;6.454;2022-07-23T21:51:52;2.17;;;0.85;;
22127;SDS011;11230;50.854;6.454;2022-07-23T21:56:33;0.73;;;0.52;;
22127;SDS011;11230;50.854;6.454;2022-07-23T22:01:16;0.43;;;0.35;;
22127;SDS011;11230;50.854;6.454;2022-07-23T22:05:58;8.40;;;0.80;;
22127;SDS011;11230;50.854;6.454;2022-07-23T22:10:39;0.40;;;0.40;;
22127;SDS011;11230;50.854;6.454;2022-07-23T22:15:20;0.28;;;0.25;;
22127;SDS011;11230;50.854;6.454;2022-07-23T22:20:04;0.68;;;0.57;;
22127;SDS011;11230;50.854;6.454;2022-07-23T22:24:46;1.38;;;0.65;;
22127;SDS011;11230;50.854;6.454;2022-07-23T22:29:27;1.92;;;0.77;;
22127;SDS011;11230;50.854;6.454;2022-07-23T22:34:09;1.05;;;0.95;;
22127;SDS011;11230;50.854;6.454;2022-07-23T22:38:52;0.20;;;0.20;;
22127;SDS011;11230;50.854;6.454;2022-07-23T22:43:33;0.68;;;0.68;;
22127;SDS011;11230;50.854;6.454;2022-07-23T22:48:15;0.90;;;0.47;;
22127;SDS011;11230;50.854;6.454;2022-07-23T22:52:57;1.48;;;0.50;;
22127;SDS011;11230;50.854;6.454;2022-07-23T22:57:39;0.30;;;0.30;;
22127;SDS011;11230;50.854;6.454;2022-07-23T23:02:21;0.40;;;0.40;;
22127;SDS011;11230;50.854;6.454;2022-07-23T23:07:02;0.43;;;0.38;;
22127;SDS011;11230;50.854;6.454;2022-07-23T23:11:44;1.42;;;0.90;;
22127;SDS011;11230;50.854;6.454;2022-07-23T23:16:26;1.17;;;0.93;;
22127;SDS011;11230;50.854;6.454;2022-07-23T23:21:08;2.78;;;0.95;;
22127;SDS011;11230;50.854;6.454;2022-07-23T23:25:49;1.48;;;0.80;;
22127;SDS011;11230;50.854;6.454;2022-07-23T23:30:30;1.25;;;1.15;;
22127;SDS011;11230;50.854;6.454;2022-07-23T23:35:13;0.57;;;0.40;;
22127;SDS011;11230;50.854;6.454;2022-07-23T23:39:55;4.43;;;1.13;;
22127;SDS011;11230;50.854;6.454;2022-07-23T23:44:36;0.70;;;0.70;;
22127;SDS011;11230;50.854;6.454;2022-07-23T23:49:17;0.93;;;0.80;;
22127;SDS011;11230;50.854;6.454;2022-07-23T23:54:00;0.50;;;0.50;;
22127;SDS011;11230;50.854;6.454;2022-07-23T23:58:41;0.40;;;0.30;;
